UAL1220 KLAX-KRDU
Flight info
| Callsign | UAL1220 |
|---|---|
| Flight time | N/A |
| Altitude | 39000 |
| Route | DOTSS2 CLEEE DCT PKE DCT HIDAT DCT KA27O DCT KA30Q DCT KA33U DCT FTI DCT KA36Y DCT MMB DCT RZC Q36 BNA J46 VXV DCT KPASS ALDAN4 |
| Aircraft | B772/H-SDE2E3FGHIJ5LORVWXY/LB1D1 |
Departure
| Time | 2026-05-06 03:24 |
|---|---|
| Airport | Los Angeles International Airport (KLAX) |
Arrival
| Time | N/A |
|---|---|
| Airport | Raleigh-Durham International Airport (KRDU) |
| Time | Latitude | Longitude | Altitude | Speed | Heading |
|---|---|---|---|---|---|
| 2026-05-06 03:00 | 33.94098 | -118.41097 | 130 ft | 0 kts | 83° |
| 2026-05-06 03:13 | 33.94097 | -118.41105 | 125 ft | 4 kts | 84° |
| 2026-05-06 03:13 | 33.94097 | -118.41137 | 125 ft | 4 kts | 97° |
| 2026-05-06 03:13 | 33.94103 | -118.41169 | 125 ft | 4 kts | 115° |
| 2026-05-06 03:14 | 33.94117 | -118.41194 | 125 ft | 4 kts | 148° |
| 2026-05-06 03:14 | 33.94131 | -118.41201 | 125 ft | 0 kts | 173° |
| 2026-05-06 03:17 | 33.94126 | -118.41200 | 124 ft | 6 kts | 173° |
| 2026-05-06 03:17 | 33.94029 | -118.41187 | 128 ft | 15 kts | 173° |
| 2026-05-06 03:17 | 33.93972 | -118.41179 | 128 ft | 6 kts | 173° |
| 2026-05-06 03:18 | 33.93900 | -118.41168 | 127 ft | 14 kts | 173° |
| 2026-05-06 03:18 | 33.93841 | -118.41160 | 127 ft | 8 kts | 173° |
| 2026-05-06 03:18 | 33.93778 | -118.41124 | 126 ft | 15 kts | 125° |
| 2026-05-06 03:18 | 33.93778 | -118.40988 | 130 ft | 16 kts | 85° |
| 2026-05-06 03:19 | 33.93793 | -118.40837 | 129 ft | 20 kts | 83° |
| 2026-05-06 03:19 | 33.93809 | -118.40678 | 128 ft | 20 kts | 84° |
| 2026-05-06 03:19 | 33.93827 | -118.40500 | 125 ft | 23 kts | 82° |
| 2026-05-06 03:19 | 33.93848 | -118.40296 | 129 ft | 26 kts | 83° |
| 2026-05-06 03:20 | 33.93885 | -118.39934 | 126 ft | 21 kts | 83° |
| 2026-05-06 03:20 | 33.93903 | -118.39754 | 127 ft | 21 kts | 83° |
| 2026-05-06 03:20 | 33.93923 | -118.39558 | 128 ft | 25 kts | 83° |
| 2026-05-06 03:21 | 33.93946 | -118.39331 | 129 ft | 29 kts | 83° |
| 2026-05-06 03:21 | 33.93964 | -118.39160 | 127 ft | 19 kts | 83° |
| 2026-05-06 03:21 | 33.93982 | -118.38983 | 128 ft | 23 kts | 83° |
| 2026-05-06 03:21 | 33.94003 | -118.38784 | 129 ft | 26 kts | 83° |
| 2026-05-06 03:22 | 33.94025 | -118.38570 | 127 ft | 27 kts | 83° |
| 2026-05-06 03:22 | 33.94049 | -118.38337 | 127 ft | 24 kts | 83° |
| 2026-05-06 03:22 | 33.94070 | -118.38125 | 126 ft | 25 kts | 83° |
| 2026-05-06 03:22 | 33.94053 | -118.38015 | 128 ft | 12 kts | 140° |
| 2026-05-06 03:23 | 33.93992 | -118.38027 | 126 ft | 9 kts | 238° |
| 2026-05-06 03:23 | 33.93984 | -118.38059 | 126 ft | 1 kts | 257° |
| 2026-05-06 03:23 | 33.93983 | -118.38062 | 126 ft | 0 kts | 257° |
| 2026-05-06 03:23 | 33.93982 | -118.38069 | 125 ft | 7 kts | 258° |
| 2026-05-06 03:24 | 33.93950 | -118.38375 | 127 ft | 70 kts | 263° |
| 2026-05-06 03:24 | 33.93860 | -118.39258 | 128 ft | 141 kts | 263° |
| 2026-05-06 03:24 | 33.93727 | -118.40594 | 537 ft | 166 kts | 263° |
| 2026-05-06 03:24 | 33.93572 | -118.41968 | 1369 ft | 167 kts | 261° |
| 2026-05-06 03:25 | 33.93396 | -118.43305 | 2231 ft | 159 kts | 260° |
| 2026-05-06 03:25 | 33.93207 | -118.44658 | 2678 ft | 162 kts | 262° |
| 2026-05-06 03:25 | 33.93063 | -118.46026 | 3063 ft | 174 kts | 258° |
| 2026-05-06 03:25 | 33.92404 | -118.47391 | 3026 ft | 205 kts | 228° |
| 2026-05-06 03:26 | 33.91385 | -118.48781 | 2986 ft | 236 kts | 230° |
| 2026-05-06 03:26 | 33.90247 | -118.50352 | 2982 ft | 257 kts | 229° |
| 2026-05-06 03:26 | 33.89062 | -118.51984 | 2971 ft | 260 kts | 229° |
| 2026-05-06 03:26 | 33.87898 | -118.53617 | 2996 ft | 261 kts | 230° |
| 2026-05-06 03:27 | 33.86648 | -118.55193 | 3531 ft | 262 kts | 216° |
| 2026-05-06 03:27 | 33.84951 | -118.55968 | 4300 ft | 265 kts | 185° |
| 2026-05-06 03:27 | 33.83119 | -118.55766 | 5035 ft | 266 kts | 168° |
| 2026-05-06 03:27 | 33.81290 | -118.55259 | 5682 ft | 272 kts | 167° |
| 2026-05-06 03:28 | 33.79466 | -118.54744 | 6451 ft | 273 kts | 167° |
| 2026-05-06 03:28 | 33.77607 | -118.54226 | 7201 ft | 275 kts | 167° |
| 2026-05-06 03:28 | 33.75726 | -118.53710 | 7896 ft | 279 kts | 167° |
| 2026-05-06 03:28 | 33.73816 | -118.53191 | 8571 ft | 282 kts | 167° |
| 2026-05-06 03:29 | 33.71900 | -118.52669 | 9241 ft | 282 kts | 166° |
| 2026-05-06 03:29 | 33.70124 | -118.51633 | 9697 ft | 290 kts | 138° |
| 2026-05-06 03:29 | 33.68958 | -118.49657 | 10260 ft | 294 kts | 114° |
| 2026-05-06 03:29 | 33.68216 | -118.47271 | 10443 ft | 316 kts | 109° |
| 2026-05-06 03:30 | 33.67500 | -118.44740 | 10898 ft | 330 kts | 109° |
| 2026-05-06 03:30 | 33.66746 | -118.42090 | 11596 ft | 338 kts | 109° |
| 2026-05-06 03:30 | 33.65966 | -118.39409 | 12490 ft | 342 kts | 109° |
| 2026-05-06 03:30 | 33.65166 | -118.36702 | 13483 ft | 345 kts | 109° |
| 2026-05-06 03:31 | 33.64434 | -118.33950 | 14333 ft | 346 kts | 101° |
| 2026-05-06 03:31 | 33.64281 | -118.31034 | 15007 ft | 354 kts | 89° |
| 2026-05-06 03:31 | 33.64324 | -118.28042 | 15836 ft | 360 kts | 89° |
| 2026-05-06 03:31 | 33.64375 | -118.25063 | 16730 ft | 363 kts | 89° |
| 2026-05-06 03:32 | 33.64416 | -118.22011 | 17584 ft | 367 kts | 89° |
| 2026-05-06 03:32 | 33.64442 | -118.18927 | 18380 ft | 372 kts | 89° |
| 2026-05-06 03:32 | 33.64457 | -118.15795 | 19147 ft | 377 kts | 90° |
| 2026-05-06 03:32 | 33.64463 | -118.12633 | 19915 ft | 381 kts | 90° |
| 2026-05-06 03:33 | 33.64464 | -118.09433 | 20685 ft | 386 kts | 90° |
| 2026-05-06 03:33 | 33.64462 | -118.06194 | 21423 ft | 390 kts | 90° |
| 2026-05-06 03:33 | 33.64459 | -118.02940 | 22160 ft | 394 kts | 90° |
| 2026-05-06 03:33 | 33.64453 | -117.99628 | 23161 ft | 396 kts | 88° |
| 2026-05-06 03:34 | 33.64447 | -117.96345 | 24212 ft | 391 kts | 88° |
| 2026-05-06 03:34 | 33.64442 | -117.93069 | 24926 ft | 393 kts | 88° |
| 2026-05-06 03:34 | 33.64437 | -117.89800 | 25431 ft | 401 kts | 88° |
| 2026-05-06 03:34 | 33.64431 | -117.86423 | 25974 ft | 407 kts | 88° |
| 2026-05-06 03:35 | 33.64422 | -117.82999 | 26582 ft | 411 kts | 88° |
| 2026-05-06 03:35 | 33.64435 | -117.79546 | 27207 ft | 413 kts | 85° |
| 2026-05-06 03:35 | 33.64834 | -117.76174 | 27734 ft | 415 kts | 76° |
| 2026-05-06 03:35 | 33.65504 | -117.72781 | 28250 ft | 420 kts | 74° |
| 2026-05-06 03:36 | 33.66233 | -117.69368 | 28790 ft | 423 kts | 74° |
| 2026-05-06 03:36 | 33.66963 | -117.65923 | 29330 ft | 427 kts | 74° |
| 2026-05-06 03:36 | 33.67678 | -117.62440 | 29837 ft | 431 kts | 75° |
| 2026-05-06 03:36 | 33.68376 | -117.58926 | 30272 ft | 435 kts | 75° |
| 2026-05-06 03:37 | 33.69066 | -117.55369 | 30602 ft | 440 kts | 75° |
| 2026-05-06 03:37 | 33.69757 | -117.51761 | 30913 ft | 445 kts | 75° |
| 2026-05-06 03:37 | 33.70442 | -117.48163 | 31232 ft | 449 kts | 75° |
| 2026-05-06 03:37 | 33.71140 | -117.44485 | 31575 ft | 453 kts | 76° |
| 2026-05-06 03:38 | 33.71846 | -117.40768 | 31908 ft | 457 kts | 76° |
| 2026-05-06 03:38 | 33.72554 | -117.37031 | 32238 ft | 461 kts | 76° |
| 2026-05-06 03:38 | 33.73270 | -117.33250 | 32527 ft | 465 kts | 76° |
| 2026-05-06 03:38 | 33.73989 | -117.29453 | 32811 ft | 469 kts | 76° |
| 2026-05-06 03:39 | 33.74715 | -117.25610 | 33091 ft | 472 kts | 76° |
| 2026-05-06 03:39 | 33.75286 | -117.21757 | 33354 ft | 478 kts | 85° |
| 2026-05-06 03:39 | 33.75297 | -117.17687 | 33661 ft | 483 kts | 91° |
| 2026-05-06 03:39 | 33.75110 | -117.13703 | 33898 ft | 486 kts | 92° |
| 2026-05-06 03:40 | 33.74915 | -117.09633 | 34138 ft | 490 kts | 92° |
| 2026-05-06 03:40 | 33.74770 | -117.05523 | 34367 ft | 492 kts | 91° |
| 2026-05-06 03:40 | 33.74674 | -117.01406 | 34594 ft | 494 kts | 90° |
| 2026-05-06 03:40 | 33.74595 | -116.97259 | 34838 ft | 496 kts | 90° |
| 2026-05-06 03:41 | 33.74514 | -116.93109 | 35122 ft | 497 kts | 91° |
| 2026-05-06 03:41 | 33.74426 | -116.89000 | 35437 ft | 497 kts | 91° |
| 2026-05-06 03:41 | 33.74332 | -116.84836 | 35711 ft | 498 kts | 91° |
| 2026-05-06 03:41 | 33.74235 | -116.80658 | 35930 ft | 501 kts | 91° |
| 2026-05-06 03:42 | 33.74138 | -116.76466 | 36155 ft | 503 kts | 91° |
| 2026-05-06 03:42 | 33.74038 | -116.72254 | 36252 ft | 506 kts | 91° |
| 2026-05-06 03:42 | 33.73937 | -116.68017 | 36552 ft | 506 kts | 91° |
| 2026-05-06 03:42 | 33.73835 | -116.63794 | 36912 ft | 504 kts | 92° |
| 2026-05-06 03:43 | 33.73732 | -116.59577 | 37203 ft | 503 kts | 92° |
| 2026-05-06 03:43 | 33.73629 | -116.55415 | 37449 ft | 505 kts | 92° |
| 2026-05-06 03:43 | 33.73522 | -116.51136 | 37659 ft | 507 kts | 92° |
| 2026-05-06 03:43 | 33.73415 | -116.46950 | 37889 ft | 508 kts | 92° |
| 2026-05-06 03:44 | 33.73305 | -116.42698 | 38114 ft | 509 kts | 92° |
| 2026-05-06 03:44 | 33.73194 | -116.38431 | 38354 ft | 510 kts | 93° |
| 2026-05-06 03:44 | 33.73081 | -116.34162 | 38592 ft | 511 kts | 93° |
| 2026-05-06 03:44 | 33.72967 | -116.29886 | 38752 ft | 512 kts | 93° |
| 2026-05-06 03:45 | 33.72733 | -116.21335 | 38861 ft | 516 kts | 93° |
| 2026-05-06 03:45 | 33.72493 | -116.12718 | 38902 ft | 514 kts | 93° |
| 2026-05-06 03:46 | 33.72930 | -116.04171 | 38891 ft | 513 kts | 73° |
| 2026-05-06 03:46 | 33.75226 | -115.96087 | 38904 ft | 515 kts | 70° |
| 2026-05-06 03:47 | 33.77668 | -115.87957 | 38900 ft | 517 kts | 70° |
| 2026-05-06 03:47 | 33.80012 | -115.79754 | 38889 ft | 519 kts | 71° |
| 2026-05-06 03:48 | 33.82274 | -115.71556 | 38885 ft | 520 kts | 72° |
| 2026-05-06 03:48 | 33.84542 | -115.63265 | 38878 ft | 521 kts | 71° |
| 2026-05-06 03:49 | 33.86799 | -115.55014 | 38871 ft | 521 kts | 71° |
| 2026-05-06 03:49 | 33.89063 | -115.46732 | 38870 ft | 521 kts | 71° |
| 2026-05-06 03:50 | 33.91327 | -115.38429 | 38871 ft | 521 kts | 72° |
| 2026-05-06 03:50 | 33.93584 | -115.30128 | 38869 ft | 521 kts | 72° |
| 2026-05-06 03:51 | 33.95820 | -115.21875 | 38870 ft | 521 kts | 72° |
| 2026-05-06 03:51 | 33.98070 | -115.13546 | 38870 ft | 522 kts | 72° |
| 2026-05-06 03:52 | 34.00311 | -115.05225 | 38862 ft | 522 kts | 72° |
| 2026-05-06 03:52 | 34.02546 | -114.96901 | 38876 ft | 522 kts | 72° |
| 2026-05-06 03:53 | 34.04767 | -114.88608 | 38868 ft | 522 kts | 72° |
| 2026-05-06 03:53 | 34.06999 | -114.80243 | 38873 ft | 522 kts | 72° |
| 2026-05-06 03:54 | 34.09217 | -114.71906 | 38872 ft | 522 kts | 72° |
| 2026-05-06 03:54 | 34.11458 | -114.63570 | 38872 ft | 522 kts | 72° |
| 2026-05-06 03:55 | 34.13785 | -114.55239 | 38870 ft | 522 kts | 71° |
| 2026-05-06 03:55 | 34.16119 | -114.46972 | 38867 ft | 522 kts | 71° |
| 2026-05-06 03:56 | 34.18452 | -114.38661 | 38865 ft | 522 kts | 71° |
| 2026-05-06 03:56 | 34.20756 | -114.30387 | 38861 ft | 522 kts | 71° |
| 2026-05-06 03:57 | 34.23070 | -114.22038 | 38863 ft | 522 kts | 72° |
| 2026-05-06 03:57 | 34.24986 | -114.15108 | 38866 ft | 523 kts | 72° |
| 2026-05-06 03:58 | 34.27289 | -114.06758 | 38859 ft | 523 kts | 72° |
| 2026-05-06 03:58 | 34.29955 | -113.97062 | 38863 ft | 523 kts | 72° |
| 2026-05-06 03:59 | 34.31857 | -113.90123 | 38866 ft | 523 kts | 72° |
| 2026-05-06 03:59 | 34.34146 | -113.81749 | 38863 ft | 523 kts | 72° |
| 2026-05-06 04:00 | 34.36427 | -113.73380 | 38866 ft | 522 kts | 72° |
| 2026-05-06 04:00 | 34.38686 | -113.65064 | 38868 ft | 522 kts | 72° |
| 2026-05-06 04:01 | 34.40954 | -113.56693 | 38865 ft | 522 kts | 72° |
| 2026-05-06 04:01 | 34.43212 | -113.48336 | 38875 ft | 522 kts | 72° |
| 2026-05-06 04:02 | 34.45454 | -113.40009 | 38870 ft | 522 kts | 72° |
| 2026-05-06 04:02 | 34.47702 | -113.31635 | 38875 ft | 522 kts | 72° |
| 2026-05-06 04:03 | 34.49950 | -113.23241 | 38873 ft | 522 kts | 73° |
| 2026-05-06 04:03 | 34.52190 | -113.14856 | 38878 ft | 522 kts | 73° |
| 2026-05-06 04:04 | 34.54425 | -113.06463 | 38883 ft | 523 kts | 73° |
| 2026-05-06 04:04 | 34.56029 | -112.97925 | 38895 ft | 522 kts | 85° |
| 2026-05-06 04:05 | 34.56251 | -112.89131 | 38894 ft | 520 kts | 97° |
| 2026-05-06 04:05 | 34.55631 | -112.80384 | 38897 ft | 520 kts | 99° |
| 2026-05-06 04:06 | 34.54970 | -112.71679 | 38941 ft | 521 kts | 98° |
| 2026-05-06 04:06 | 34.54361 | -112.62932 | 38985 ft | 521 kts | 98° |
| 2026-05-06 04:07 | 34.53772 | -112.54136 | 39013 ft | 522 kts | 98° |
| 2026-05-06 04:07 | 34.53178 | -112.45341 | 39023 ft | 523 kts | 99° |
| 2026-05-06 04:08 | 34.52573 | -112.36536 | 39022 ft | 523 kts | 99° |
| 2026-05-06 04:08 | 34.51964 | -112.27776 | 39011 ft | 524 kts | 99° |
| 2026-05-06 04:09 | 34.51346 | -112.18947 | 38983 ft | 526 kts | 99° |
| 2026-05-06 04:09 | 34.50719 | -112.10069 | 38932 ft | 528 kts | 99° |
| 2026-05-06 04:10 | 34.50572 | -112.01119 | 38920 ft | 536 kts | 88° |
| 2026-05-06 04:10 | 34.51850 | -111.92222 | 38929 ft | 543 kts | 76° |
| 2026-05-06 04:11 | 34.54120 | -111.83451 | 38961 ft | 545 kts | 74° |
| 2026-05-06 04:11 | 34.56476 | -111.74687 | 38965 ft | 547 kts | 74° |
| 2026-05-06 04:12 | 34.58772 | -111.65927 | 38974 ft | 548 kts | 75° |
| 2026-05-06 04:12 | 34.61046 | -111.57053 | 38959 ft | 549 kts | 75° |
| 2026-05-06 04:13 | 34.63300 | -111.48189 | 38958 ft | 549 kts | 75° |
| 2026-05-06 04:13 | 34.65541 | -111.39363 | 38941 ft | 550 kts | 75° |
| 2026-05-06 04:14 | 34.67795 | -111.30469 | 38955 ft | 550 kts | 75° |
| 2026-05-06 04:14 | 34.70049 | -111.21546 | 38940 ft | 551 kts | 75° |
| 2026-05-06 04:15 | 34.72280 | -111.12682 | 38946 ft | 551 kts | 75° |
| 2026-05-06 04:15 | 34.74524 | -111.03740 | 38936 ft | 552 kts | 76° |
| 2026-05-06 04:16 | 34.76752 | -110.94826 | 38962 ft | 553 kts | 76° |
| 2026-05-06 04:16 | 34.78990 | -110.85842 | 38968 ft | 555 kts | 76° |
| 2026-05-06 04:17 | 34.81227 | -110.76833 | 38988 ft | 556 kts | 76° |
| 2026-05-06 04:17 | 34.83450 | -110.67849 | 38996 ft | 557 kts | 76° |
| 2026-05-06 04:18 | 34.85683 | -110.58791 | 38995 ft | 559 kts | 76° |
| 2026-05-06 04:18 | 34.87922 | -110.49679 | 38969 ft | 560 kts | 76° |
| 2026-05-06 04:19 | 34.90142 | -110.40612 | 38942 ft | 561 kts | 76° |
| 2026-05-06 04:19 | 34.92370 | -110.31481 | 38909 ft | 562 kts | 76° |
| 2026-05-06 04:20 | 34.94583 | -110.22381 | 38903 ft | 563 kts | 76° |
| 2026-05-06 04:20 | 34.96805 | -110.13217 | 38898 ft | 564 kts | 76° |
| 2026-05-06 04:21 | 34.99025 | -110.04034 | 38905 ft | 565 kts | 77° |
| 2026-05-06 04:21 | 35.00867 | -109.94733 | 38888 ft | 562 kts | 84° |
| 2026-05-06 04:22 | 35.02149 | -109.85386 | 38907 ft | 562 kts | 85° |
| 2026-05-06 04:23 | 35.04035 | -109.71197 | 38892 ft | 564 kts | 85° |
| 2026-05-06 04:23 | 35.05332 | -109.61817 | 38898 ft | 565 kts | 85° |
| 2026-05-06 04:24 | 35.06652 | -109.52345 | 38896 ft | 566 kts | 85° |
| 2026-05-06 04:24 | 35.07965 | -109.42861 | 38901 ft | 567 kts | 85° |
| 2026-05-06 04:25 | 35.09268 | -109.33355 | 38905 ft | 568 kts | 85° |
| 2026-05-06 04:25 | 35.10557 | -109.23874 | 38905 ft | 569 kts | 85° |
| 2026-05-06 04:26 | 35.11848 | -109.14328 | 38899 ft | 570 kts | 85° |
| 2026-05-06 04:26 | 35.13136 | -109.04749 | 38914 ft | 570 kts | 85° |
| 2026-05-06 04:27 | 35.14408 | -108.95229 | 38907 ft | 571 kts | 85° |
| 2026-05-06 04:27 | 35.15680 | -108.85646 | 38922 ft | 572 kts | 85° |
| 2026-05-06 04:28 | 35.16947 | -108.76047 | 38930 ft | 572 kts | 85° |
| 2026-05-06 04:28 | 35.18209 | -108.66426 | 38934 ft | 572 kts | 85° |
| 2026-05-06 04:29 | 35.19460 | -108.56817 | 38928 ft | 572 kts | 85° |
| 2026-05-06 04:29 | 35.20699 | -108.47251 | 38933 ft | 572 kts | 85° |
| 2026-05-06 04:29 | 35.21320 | -108.42431 | 39161 ft | 571 kts | 85° |
| 2026-05-06 04:30 | 35.21934 | -108.37667 | 39065 ft | 561 kts | 85° |
| 2026-05-06 04:30 | 35.23123 | -108.28412 | 38962 ft | 550 kts | 85° |
| 2026-05-06 04:31 | 35.24297 | -108.19137 | 38999 ft | 552 kts | 86° |
| 2026-05-06 04:31 | 35.25470 | -108.09807 | 39029 ft | 555 kts | 86° |
| 2026-05-06 04:32 | 35.26637 | -108.00489 | 39057 ft | 558 kts | 86° |
| 2026-05-06 04:32 | 35.27814 | -107.91051 | 39078 ft | 561 kts | 86° |
| 2026-05-06 04:33 | 35.28980 | -107.81635 | 39049 ft | 562 kts | 86° |
| 2026-05-06 04:33 | 35.30149 | -107.72148 | 39007 ft | 563 kts | 86° |
| 2026-05-06 04:34 | 35.31308 | -107.62667 | 38955 ft | 562 kts | 86° |
| 2026-05-06 04:34 | 35.32448 | -107.53271 | 38908 ft | 561 kts | 86° |
| 2026-05-06 04:35 | 35.33591 | -107.43790 | 38881 ft | 561 kts | 86° |
| 2026-05-06 04:35 | 35.34727 | -107.34304 | 38879 ft | 561 kts | 87° |
| 2026-05-06 04:36 | 35.35848 | -107.24872 | 38869 ft | 563 kts | 87° |
| 2026-05-06 04:36 | 35.36972 | -107.15356 | 38860 ft | 564 kts | 87° |
| 2026-05-06 04:37 | 35.38084 | -107.05880 | 38890 ft | 565 kts | 87° |
| 2026-05-06 04:37 | 35.39197 | -106.96323 | 38909 ft | 567 kts | 88° |
| 2026-05-06 04:38 | 35.40306 | -106.86732 | 38923 ft | 568 kts | 88° |
| 2026-05-06 04:38 | 35.41410 | -106.77127 | 38909 ft | 569 kts | 88° |
| 2026-05-06 04:39 | 35.42501 | -106.67562 | 38897 ft | 569 kts | 88° |
| 2026-05-06 04:39 | 35.43593 | -106.57929 | 38887 ft | 570 kts | 88° |
| 2026-05-06 04:40 | 35.44677 | -106.48276 | 38862 ft | 570 kts | 88° |
| 2026-05-06 04:40 | 35.45748 | -106.38692 | 38907 ft | 571 kts | 88° |
| 2026-05-06 04:41 | 35.46820 | -106.29018 | 38947 ft | 571 kts | 88° |
| 2026-05-06 04:41 | 35.47886 | -106.19343 | 38982 ft | 572 kts | 88° |
| 2026-05-06 04:42 | 35.48941 | -106.09715 | 39004 ft | 573 kts | 88° |
| 2026-05-06 04:42 | 35.50018 | -106.00018 | 39002 ft | 575 kts | 86° |
| 2026-05-06 04:43 | 35.51672 | -105.90349 | 38984 ft | 579 kts | 82° |
| 2026-05-06 04:43 | 35.53527 | -105.80711 | 38943 ft | 580 kts | 81° |
| 2026-05-06 04:44 | 35.55347 | -105.71109 | 38877 ft | 580 kts | 82° |
| 2026-05-06 04:44 | 35.57130 | -105.61427 | 38865 ft | 580 kts | 82° |
| 2026-05-06 04:45 | 35.58887 | -105.51786 | 38879 ft | 580 kts | 82° |
| 2026-05-06 04:45 | 35.60650 | -105.42085 | 38915 ft | 580 kts | 82° |
| 2026-05-06 04:46 | 35.62400 | -105.32441 | 38979 ft | 580 kts | 82° |
| 2026-05-06 04:46 | 35.64146 | -105.22783 | 39030 ft | 580 kts | 82° |
| 2026-05-06 04:47 | 35.65603 | -105.14660 | 39038 ft | 580 kts | 83° |
| 2026-05-06 04:47 | 35.66961 | -105.04948 | 39030 ft | 579 kts | 87° |
| 2026-05-06 04:48 | 35.68090 | -104.95116 | 38977 ft | 581 kts | 88° |
| 2026-05-06 04:48 | 35.69218 | -104.85243 | 38914 ft | 584 kts | 88° |
| 2026-05-06 04:49 | 35.70388 | -104.75345 | 38863 ft | 585 kts | 88° |
| 2026-05-06 04:49 | 35.71576 | -104.65404 | 38835 ft | 586 kts | 88° |
| 2026-05-06 04:50 | 35.72750 | -104.55518 | 38839 ft | 586 kts | 88° |
| 2026-05-06 04:50 | 35.73917 | -104.45569 | 38837 ft | 586 kts | 88° |
| 2026-05-06 04:51 | 35.75068 | -104.35672 | 38860 ft | 587 kts | 88° |
| 2026-05-06 04:51 | 35.76215 | -104.25711 | 38856 ft | 588 kts | 88° |
| 2026-05-06 04:52 | 35.77360 | -104.15710 | 38850 ft | 588 kts | 88° |
| 2026-05-06 04:52 | 35.78498 | -104.05697 | 38858 ft | 590 kts | 88° |
| 2026-05-06 04:53 | 35.79624 | -103.95720 | 38867 ft | 591 kts | 88° |
| 2026-05-06 04:53 | 35.80751 | -103.85659 | 38874 ft | 592 kts | 88° |
| 2026-05-06 04:54 | 35.81868 | -103.75608 | 38876 ft | 592 kts | 88° |
| 2026-05-06 04:54 | 35.82973 | -103.65580 | 38892 ft | 593 kts | 88° |
| 2026-05-06 04:55 | 35.84078 | -103.55478 | 38896 ft | 594 kts | 88° |
| 2026-05-06 04:55 | 35.85169 | -103.45420 | 38893 ft | 595 kts | 88° |
| 2026-05-06 04:56 | 35.86260 | -103.35283 | 38898 ft | 596 kts | 88° |
| 2026-05-06 04:56 | 35.87345 | -103.25127 | 38906 ft | 597 kts | 88° |
| 2026-05-06 04:57 | 35.88423 | -103.14958 | 38902 ft | 597 kts | 88° |
| 2026-05-06 04:57 | 35.89486 | -103.04834 | 38899 ft | 598 kts | 88° |
| 2026-05-06 04:58 | 35.90547 | -102.94641 | 38920 ft | 599 kts | 88° |
| 2026-05-06 04:58 | 35.91596 | -102.84491 | 38951 ft | 599 kts | 88° |
| 2026-05-06 04:59 | 35.92644 | -102.74262 | 38977 ft | 599 kts | 88° |
| 2026-05-06 04:59 | 35.93682 | -102.64047 | 39016 ft | 600 kts | 88° |
| 2026-05-06 05:00 | 35.94706 | -102.53877 | 39012 ft | 600 kts | 88° |
| 2026-05-06 05:00 | 35.95730 | -102.43628 | 39015 ft | 601 kts | 88° |
| 2026-05-06 05:01 | 35.96745 | -102.33381 | 38986 ft | 601 kts | 88° |
| 2026-05-06 05:01 | 35.97747 | -102.23179 | 38975 ft | 601 kts | 88° |
| 2026-05-06 05:02 | 35.98750 | -102.12896 | 39000 ft | 602 kts | 88° |
| 2026-05-06 05:02 | 35.99742 | -102.02652 | 39011 ft | 602 kts | 88° |
| 2026-05-06 05:03 | 36.01162 | -101.92417 | 39012 ft | 606 kts | 82° |
| 2026-05-06 05:03 | 36.02938 | -101.82254 | 38962 ft | 607 kts | 81° |
| 2026-05-06 05:04 | 36.04738 | -101.72052 | 38950 ft | 607 kts | 82° |
| 2026-05-06 05:04 | 36.06487 | -101.61818 | 38932 ft | 608 kts | 82° |
| 2026-05-06 05:05 | 36.08193 | -101.51619 | 38930 ft | 608 kts | 82° |
| 2026-05-06 05:05 | 36.09898 | -101.41362 | 38941 ft | 609 kts | 82° |
| 2026-05-06 05:06 | 36.11601 | -101.31097 | 38937 ft | 609 kts | 82° |
| 2026-05-06 05:06 | 36.13301 | -101.20812 | 38932 ft | 609 kts | 82° |
| 2026-05-06 05:07 | 36.14983 | -101.10575 | 38953 ft | 610 kts | 82° |
| 2026-05-06 05:07 | 36.16666 | -101.00271 | 38966 ft | 610 kts | 82° |
| 2026-05-06 05:08 | 36.18341 | -100.89952 | 38988 ft | 610 kts | 82° |
| 2026-05-06 05:08 | 36.20007 | -100.79636 | 38987 ft | 610 kts | 82° |
| 2026-05-06 05:09 | 36.21654 | -100.69371 | 39007 ft | 610 kts | 82° |
| 2026-05-06 05:09 | 36.23305 | -100.59032 | 39009 ft | 610 kts | 82° |
| 2026-05-06 05:10 | 36.24936 | -100.48757 | 38991 ft | 611 kts | 82° |
| 2026-05-06 05:10 | 36.26567 | -100.38421 | 38984 ft | 611 kts | 82° |
| 2026-05-06 05:11 | 36.28192 | -100.28068 | 38978 ft | 611 kts | 82° |
| 2026-05-06 05:11 | 36.29800 | -100.17761 | 38987 ft | 611 kts | 82° |
| 2026-05-06 05:12 | 36.31410 | -100.07390 | 39000 ft | 611 kts | 82° |
| 2026-05-06 05:12 | 36.33011 | -99.97033 | 39009 ft | 611 kts | 82° |
| 2026-05-06 05:13 | 36.34373 | -99.86645 | 39029 ft | 607 kts | 89° |
| 2026-05-06 05:13 | 36.34616 | -99.76325 | 39005 ft | 601 kts | 96° |
| 2026-05-06 05:14 | 36.34563 | -99.65936 | 39012 ft | 601 kts | 97° |
| 2026-05-06 05:14 | 36.34542 | -99.55553 | 39045 ft | 602 kts | 96° |
| 2026-05-06 05:15 | 36.34574 | -99.45164 | 39041 ft | 602 kts | 96° |
| 2026-05-06 05:15 | 36.34617 | -99.34759 | 39028 ft | 602 kts | 96° |
| 2026-05-06 05:16 | 36.34648 | -99.24408 | 39017 ft | 602 kts | 96° |
| 2026-05-06 05:16 | 36.34662 | -99.14023 | 39004 ft | 602 kts | 96° |
| 2026-05-06 05:17 | 36.34665 | -99.03625 | 38988 ft | 602 kts | 96° |
| 2026-05-06 05:17 | 36.34659 | -98.93270 | 38986 ft | 602 kts | 96° |
| 2026-05-06 05:18 | 36.34645 | -98.82879 | 38990 ft | 602 kts | 96° |
| 2026-05-06 05:18 | 36.34623 | -98.72476 | 38988 ft | 602 kts | 96° |
| 2026-05-06 05:19 | 36.34591 | -98.62152 | 38984 ft | 602 kts | 96° |
| 2026-05-06 05:19 | 36.34550 | -98.51754 | 38982 ft | 602 kts | 96° |
| 2026-05-06 05:20 | 36.34501 | -98.41412 | 38985 ft | 601 kts | 96° |
| 2026-05-06 05:20 | 36.34442 | -98.31030 | 38983 ft | 602 kts | 96° |
| 2026-05-06 05:21 | 36.34374 | -98.20614 | 38982 ft | 602 kts | 96° |
| 2026-05-06 05:21 | 36.34298 | -98.10295 | 38976 ft | 602 kts | 96° |
| 2026-05-06 05:22 | 36.34212 | -97.99904 | 38982 ft | 602 kts | 96° |
| 2026-05-06 05:22 | 36.34117 | -97.89499 | 38978 ft | 602 kts | 96° |
| 2026-05-06 05:23 | 36.34014 | -97.79100 | 39018 ft | 602 kts | 96° |
| 2026-05-06 05:23 | 36.33842 | -97.63563 | 39011 ft | 602 kts | 96° |
| 2026-05-06 05:24 | 36.33716 | -97.53160 | 39007 ft | 603 kts | 96° |
| 2026-05-06 05:24 | 36.33580 | -97.42763 | 39003 ft | 603 kts | 96° |
| 2026-05-06 05:25 | 36.33436 | -97.32359 | 38997 ft | 603 kts | 96° |
| 2026-05-06 05:25 | 36.33284 | -97.22009 | 39000 ft | 603 kts | 96° |
| 2026-05-06 05:26 | 36.33121 | -97.11575 | 38999 ft | 603 kts | 96° |
| 2026-05-06 05:26 | 36.32951 | -97.01226 | 39003 ft | 603 kts | 96° |
| 2026-05-06 05:27 | 36.32770 | -96.90826 | 38993 ft | 603 kts | 96° |
| 2026-05-06 05:27 | 36.32581 | -96.80421 | 39004 ft | 603 kts | 96° |
| 2026-05-06 05:28 | 36.32383 | -96.70033 | 39003 ft | 602 kts | 96° |
| 2026-05-06 05:28 | 36.32177 | -96.59691 | 39004 ft | 602 kts | 96° |
| 2026-05-06 05:29 | 36.31961 | -96.49286 | 39006 ft | 602 kts | 96° |
| 2026-05-06 05:29 | 36.31737 | -96.38964 | 39007 ft | 601 kts | 96° |
| 2026-05-06 05:30 | 36.31543 | -96.30323 | 39007 ft | 601 kts | 96° |
| 2026-05-06 05:30 | 36.31302 | -96.19950 | 39006 ft | 601 kts | 96° |
| 2026-05-06 05:31 | 36.31052 | -96.09584 | 39002 ft | 600 kts | 96° |
| 2026-05-06 05:31 | 36.30795 | -95.99283 | 38999 ft | 600 kts | 96° |
| 2026-05-06 05:32 | 36.30527 | -95.88918 | 38997 ft | 600 kts | 96° |
| 2026-05-06 05:32 | 36.30251 | -95.78571 | 38990 ft | 599 kts | 97° |
| 2026-05-06 05:33 | 36.29966 | -95.68236 | 38976 ft | 599 kts | 96° |
| 2026-05-06 05:33 | 36.29675 | -95.57977 | 38975 ft | 599 kts | 97° |
| 2026-05-06 05:34 | 36.29373 | -95.47642 | 38976 ft | 598 kts | 97° |
| 2026-05-06 05:34 | 36.29063 | -95.37384 | 38981 ft | 598 kts | 97° |
| 2026-05-06 05:35 | 36.28744 | -95.27075 | 38973 ft | 598 kts | 97° |
| 2026-05-06 05:35 | 36.28416 | -95.16773 | 38973 ft | 598 kts | 97° |
| 2026-05-06 05:36 | 36.28079 | -95.06476 | 38965 ft | 598 kts | 97° |
| 2026-05-06 05:36 | 36.27735 | -94.96209 | 38957 ft | 598 kts | 97° |
| 2026-05-06 05:37 | 36.27380 | -94.85911 | 38963 ft | 598 kts | 97° |
| 2026-05-06 05:37 | 36.27019 | -94.75655 | 38976 ft | 598 kts | 97° |
| 2026-05-06 05:38 | 36.26647 | -94.65338 | 38984 ft | 598 kts | 97° |
| 2026-05-06 05:38 | 36.26266 | -94.55042 | 38989 ft | 598 kts | 97° |
| 2026-05-06 05:39 | 36.25878 | -94.44749 | 38991 ft | 598 kts | 97° |
| 2026-05-06 05:39 | 36.25483 | -94.34510 | 38980 ft | 598 kts | 97° |
| 2026-05-06 05:40 | 36.25078 | -94.24178 | 38985 ft | 598 kts | 97° |
| 2026-05-06 05:40 | 36.24669 | -94.13929 | 38996 ft | 598 kts | 97° |
| 2026-05-06 05:41 | 36.24335 | -94.03585 | 38976 ft | 599 kts | 96° |
| 2026-05-06 05:41 | 36.24154 | -93.93322 | 38972 ft | 599 kts | 95° |
| 2026-05-06 05:42 | 36.23981 | -93.82995 | 38976 ft | 598 kts | 95° |
| 2026-05-06 05:42 | 36.23769 | -93.72691 | 38983 ft | 598 kts | 95° |
| 2026-05-06 05:43 | 36.23532 | -93.62393 | 38977 ft | 598 kts | 95° |
| 2026-05-06 05:43 | 36.23285 | -93.52144 | 38979 ft | 598 kts | 95° |
| 2026-05-06 05:44 | 36.23031 | -93.41837 | 38974 ft | 598 kts | 95° |
| 2026-05-06 05:44 | 36.22769 | -93.31530 | 38972 ft | 598 kts | 95° |
| 2026-05-06 05:45 | 36.22503 | -93.21280 | 38981 ft | 598 kts | 95° |
| 2026-05-06 05:45 | 36.22225 | -93.10967 | 38971 ft | 597 kts | 95° |
| 2026-05-06 05:46 | 36.21939 | -93.00739 | 38973 ft | 597 kts | 95° |
| 2026-05-06 05:46 | 36.21644 | -92.90469 | 38970 ft | 596 kts | 95° |
| 2026-05-06 05:47 | 36.21341 | -92.80216 | 38978 ft | 595 kts | 95° |
| 2026-05-06 05:47 | 36.21028 | -92.69965 | 38971 ft | 595 kts | 95° |
| 2026-05-06 05:48 | 36.20709 | -92.59780 | 38971 ft | 595 kts | 95° |
| 2026-05-06 05:48 | 36.20379 | -92.49497 | 38965 ft | 595 kts | 95° |
| 2026-05-06 05:49 | 36.20040 | -92.39237 | 38963 ft | 595 kts | 95° |
| 2026-05-06 05:49 | 36.19695 | -92.29065 | 38965 ft | 595 kts | 95° |
| 2026-05-06 05:50 | 36.19340 | -92.18846 | 38956 ft | 594 kts | 95° |
| 2026-05-06 05:50 | 36.18977 | -92.08614 | 38951 ft | 594 kts | 95° |
| 2026-05-06 05:51 | 36.18605 | -91.98397 | 38952 ft | 594 kts | 95° |
| 2026-05-06 05:51 | 36.18224 | -91.88157 | 38944 ft | 594 kts | 95° |
| 2026-05-06 05:52 | 36.17836 | -91.77996 | 38936 ft | 593 kts | 95° |
| 2026-05-06 05:52 | 36.17438 | -91.67790 | 38937 ft | 593 kts | 95° |
| 2026-05-06 05:53 | 36.17032 | -91.57587 | 38927 ft | 592 kts | 96° |
| 2026-05-06 05:53 | 36.16621 | -91.47458 | 38925 ft | 592 kts | 96° |
| 2026-05-06 05:54 | 36.16198 | -91.37259 | 38920 ft | 591 kts | 96° |
| 2026-05-06 05:54 | 36.15770 | -91.27134 | 38917 ft | 591 kts | 96° |
| 2026-05-06 05:55 | 36.15332 | -91.16960 | 38914 ft | 591 kts | 96° |
| 2026-05-06 05:55 | 36.14888 | -91.06810 | 38920 ft | 591 kts | 96° |
| 2026-05-06 05:56 | 36.14438 | -90.96650 | 38923 ft | 590 kts | 96° |
| 2026-05-06 05:56 | 36.14120 | -90.86540 | 38926 ft | 591 kts | 92° |
| 2026-05-06 05:57 | 36.14124 | -90.76349 | 38923 ft | 591 kts | 91° |
| 2026-05-06 05:57 | 36.14180 | -90.66218 | 38909 ft | 591 kts | 91° |
| 2026-05-06 05:58 | 36.14199 | -90.56006 | 38894 ft | 591 kts | 92° |
| 2026-05-06 05:58 | 36.14184 | -90.45809 | 38885 ft | 591 kts | 92° |
| 2026-05-06 05:59 | 36.14155 | -90.35674 | 38881 ft | 591 kts | 92° |
| 2026-05-06 05:59 | 36.14121 | -90.25520 | 38887 ft | 590 kts | 92° |
| 2026-05-06 06:00 | 36.14081 | -90.15350 | 38895 ft | 590 kts | 92° |
| 2026-05-06 06:00 | 36.14033 | -90.05257 | 38894 ft | 589 kts | 92° |
| 2026-05-06 06:01 | 36.13976 | -89.95100 | 38906 ft | 588 kts | 92° |
| 2026-05-06 06:01 | 36.13910 | -89.84971 | 38885 ft | 588 kts | 92° |
| 2026-05-06 06:02 | 36.13837 | -89.74920 | 38881 ft | 587 kts | 92° |
| 2026-05-06 06:02 | 36.13754 | -89.64800 | 38877 ft | 587 kts | 92° |
| 2026-05-06 06:03 | 36.13664 | -89.54752 | 38864 ft | 587 kts | 93° |
| 2026-05-06 06:03 | 36.13565 | -89.44626 | 38856 ft | 587 kts | 93° |
| 2026-05-06 06:04 | 36.13458 | -89.34517 | 38872 ft | 587 kts | 93° |
| 2026-05-06 06:04 | 36.13343 | -89.24407 | 38869 ft | 588 kts | 92° |
| 2026-05-06 06:05 | 36.13220 | -89.14282 | 38856 ft | 588 kts | 93° |
| 2026-05-06 06:05 | 36.13093 | -89.04218 | 38866 ft | 588 kts | 92° |
| 2026-05-06 06:06 | 36.12952 | -88.94113 | 38867 ft | 588 kts | 93° |
| 2026-05-06 06:06 | 36.12868 | -88.88787 | 38849 ft | 588 kts | 93° |